sensor_id;sensor_type;location;lat;lon;timestamp;P1;durP1;ratioP1;P2;durP2;ratioP2
80136;SDS011;69466;55.948;37.484;2023-12-29T00:00:56;7.97;;;2.80;;
80136;SDS011;69466;55.948;37.484;2023-12-29T00:03:22;5.28;;;2.70;;
80136;SDS011;69466;55.948;37.484;2023-12-29T00:05:48;7.63;;;2.78;;
80136;SDS011;69466;55.948;37.484;2023-12-29T00:08:14;7.00;;;2.60;;
80136;SDS011;69466;55.948;37.484;2023-12-29T00:10:40;6.28;;;3.00;;
80136;SDS011;69466;55.948;37.484;2023-12-29T00:13:06;7.43;;;2.63;;
80136;SDS011;69466;55.948;37.484;2023-12-29T00:15:32;6.50;;;3.15;;
80136;SDS011;69466;55.948;37.484;2023-12-29T00:17:58;5.97;;;2.75;;
80136;SDS011;69466;55.948;37.484;2023-12-29T00:20:24;8.40;;;2.95;;
80136;SDS011;69466;55.948;37.484;2023-12-29T00:22:50;6.57;;;2.80;;
80136;SDS011;69466;55.948;37.484;2023-12-29T00:25:16;6.93;;;2.90;;
80136;SDS011;69466;55.948;37.484;2023-12-29T00:27:42;7.15;;;3.15;;
80136;SDS011;69466;55.948;37.484;2023-12-29T00:30:09;6.22;;;2.40;;
80136;SDS011;69466;55.948;37.484;2023-12-29T00:32:35;6.22;;;3.28;;
80136;SDS011;69466;55.948;37.484;2023-12-29T00:35:03;6.30;;;2.70;;
80136;SDS011;69466;55.948;37.484;2023-12-29T00:37:29;8.27;;;3.05;;
80136;SDS011;69466;55.948;37.484;2023-12-29T00:39:55;7.00;;;2.78;;
80136;SDS011;69466;55.948;37.484;2023-12-29T00:42:22;6.78;;;2.60;;
80136;SDS011;69466;55.948;37.484;2023-12-29T00:44:48;7.22;;;2.95;;
80136;SDS011;69466;55.948;37.484;2023-12-29T00:47:17;6.60;;;3.05;;
80136;SDS011;69466;55.948;37.484;2023-12-29T00:49:46;6.85;;;2.35;;
80136;SDS011;69466;55.948;37.484;2023-12-29T00:52:12;5.35;;;2.53;;
80136;SDS011;69466;55.948;37.484;2023-12-29T00:54:39;7.03;;;2.95;;
80136;SDS011;69466;55.948;37.484;2023-12-29T00:57:06;5.15;;;2.50;;
80136;SDS011;69466;55.948;37.484;2023-12-29T00:59:32;6.03;;;2.70;;
80136;SDS011;69466;55.948;37.484;2023-12-29T01:01:58;6.35;;;2.50;;
80136;SDS011;69466;55.948;37.484;2023-12-29T01:04:24;4.97;;;2.50;;
80136;SDS011;69466;55.948;37.484;2023-12-29T01:06:50;5.85;;;2.45;;
80136;SDS011;69466;55.948;37.484;2023-12-29T01:09:16;5.53;;;2.45;;
80136;SDS011;69466;55.948;37.484;2023-12-29T01:11:42;6.00;;;2.70;;
80136;SDS011;69466;55.948;37.484;2023-12-29T01:14:08;5.75;;;2.42;;
80136;SDS011;69466;55.948;37.484;2023-12-29T01:16:34;7.03;;;2.55;;
80136;SDS011;69466;55.948;37.484;2023-12-29T01:19:00;6.35;;;2.88;;
80136;SDS011;69466;55.948;37.484;2023-12-29T01:21:26;6.15;;;2.60;;
80136;SDS011;69466;55.948;37.484;2023-12-29T01:23:52;6.60;;;2.50;;
80136;SDS011;69466;55.948;37.484;2023-12-29T01:26:18;6.13;;;2.75;;
80136;SDS011;69466;55.948;37.484;2023-12-29T01:28:44;5.15;;;2.45;;
80136;SDS011;69466;55.948;37.484;2023-12-29T01:31:10;5.80;;;2.38;;
80136;SDS011;69466;55.948;37.484;2023-12-29T01:33:38;6.82;;;2.63;;
80136;SDS011;69466;55.948;37.484;2023-12-29T01:36:05;5.70;;;2.58;;
80136;SDS011;69466;55.948;37.484;2023-12-29T01:38:31;6.05;;;3.10;;
80136;SDS011;69466;55.948;37.484;2023-12-29T01:40:57;5.90;;;2.72;;
80136;SDS011;69466;55.948;37.484;2023-12-29T01:43:23;6.10;;;3.10;;
80136;SDS011;69466;55.948;37.484;2023-12-29T01:45:48;6.80;;;2.70;;
80136;SDS011;69466;55.948;37.484;2023-12-29T01:48:14;5.72;;;2.60;;
80136;SDS011;69466;55.948;37.484;2023-12-29T01:50:41;8.30;;;2.90;;
80136;SDS011;69466;55.948;37.484;2023-12-29T01:53:07;6.18;;;2.63;;
80136;SDS011;69466;55.948;37.484;2023-12-29T01:55:33;6.70;;;2.70;;
80136;SDS011;69466;55.948;37.484;2023-12-29T01:57:59;5.05;;;2.60;;
80136;SDS011;69466;55.948;37.484;2023-12-29T02:00:27;7.32;;;2.72;;
80136;SDS011;69466;55.948;37.484;2023-12-29T02:02:53;5.45;;;2.88;;
80136;SDS011;69466;55.948;37.484;2023-12-29T02:05:20;6.50;;;2.45;;
80136;SDS011;69466;55.948;37.484;2023-12-29T02:07:50;6.22;;;2.72;;
80136;SDS011;69466;55.948;37.484;2023-12-29T02:10:17;5.63;;;2.53;;
80136;SDS011;69466;55.948;37.484;2023-12-29T02:12:44;5.45;;;2.33;;
80136;SDS011;69466;55.948;37.484;2023-12-29T02:15:13;6.70;;;2.38;;
80136;SDS011;69466;55.948;37.484;2023-12-29T02:17:51;6.68;;;2.50;;
80136;SDS011;69466;55.948;37.484;2023-12-29T02:20:24;6.80;;;2.92;;
80136;SDS011;69466;55.948;37.484;2023-12-29T02:22:50;5.72;;;2.63;;
80136;SDS011;69466;55.948;37.484;2023-12-29T02:25:16;7.10;;;2.97;;
80136;SDS011;69466;55.948;37.484;2023-12-29T02:28:44;6.18;;;2.53;;
80136;SDS011;69466;55.948;37.484;2023-12-29T02:30:51;5.57;;;2.50;;
80136;SDS011;69466;55.948;37.484;2023-12-29T02:33:25;5.43;;;2.45;;
80136;SDS011;69466;55.948;37.484;2023-12-29T02:35:55;5.43;;;2.20;;
80136;SDS011;69466;55.948;37.484;2023-12-29T02:38:25;6.63;;;2.40;;
80136;SDS011;69466;55.948;37.484;2023-12-29T02:40:55;6.72;;;3.28;;
80136;SDS011;69466;55.948;37.484;2023-12-29T02:43:22;4.97;;;2.35;;
80136;SDS011;69466;55.948;37.484;2023-12-29T02:45:48;6.32;;;2.65;;
80136;SDS011;69466;55.948;37.484;2023-12-29T02:48:14;5.43;;;2.72;;
80136;SDS011;69466;55.948;37.484;2023-12-29T02:50:40;6.22;;;2.30;;
80136;SDS011;69466;55.948;37.484;2023-12-29T02:53:06;6.90;;;2.63;;
80136;SDS011;69466;55.948;37.484;2023-12-29T02:55:32;7.05;;;2.50;;
80136;SDS011;69466;55.948;37.484;2023-12-29T02:57:58;6.22;;;2.65;;
80136;SDS011;69466;55.948;37.484;2023-12-29T03:00:24;5.28;;;2.35;;
80136;SDS011;69466;55.948;37.484;2023-12-29T03:02:51;5.95;;;2.83;;
80136;SDS011;69466;55.948;37.484;2023-12-29T03:05:17;5.22;;;2.28;;
80136;SDS011;69466;55.948;37.484;2023-12-29T03:07:43;5.88;;;2.05;;
80136;SDS011;69466;55.948;37.484;2023-12-29T03:10:09;6.90;;;2.75;;
80136;SDS011;69466;55.948;37.484;2023-12-29T03:12:35;7.35;;;2.40;;
80136;SDS011;69466;55.948;37.484;2023-12-29T03:15:01;7.85;;;2.40;;
80136;SDS011;69466;55.948;37.484;2023-12-29T03:17:29;6.95;;;3.00;;
80136;SDS011;69466;55.948;37.484;2023-12-29T03:19:55;6.47;;;2.78;;
80136;SDS011;69466;55.948;37.484;2023-12-29T03:22:21;7.40;;;2.60;;
80136;SDS011;69466;55.948;37.484;2023-12-29T03:24:48;5.47;;;2.10;;
80136;SDS011;69466;55.948;37.484;2023-12-29T03:27:14;6.35;;;2.90;;
80136;SDS011;69466;55.948;37.484;2023-12-29T03:29:40;5.85;;;2.53;;
80136;SDS011;69466;55.948;37.484;2023-12-29T03:32:06;5.63;;;2.88;;
80136;SDS011;69466;55.948;37.484;2023-12-29T03:34:32;5.47;;;2.65;;
80136;SDS011;69466;55.948;37.484;2023-12-29T03:36:58;5.28;;;2.60;;
80136;SDS011;69466;55.948;37.484;2023-12-29T03:39:24;5.18;;;2.25;;
80136;SDS011;69466;55.948;37.484;2023-12-29T03:41:50;6.30;;;2.45;;
80136;SDS011;69466;55.948;37.484;2023-12-29T03:44:16;7.05;;;2.45;;
80136;SDS011;69466;55.948;37.484;2023-12-29T03:46:43;5.55;;;2.22;;
80136;SDS011;69466;55.948;37.484;2023-12-29T03:49:09;6.53;;;2.70;;
80136;SDS011;69466;55.948;37.484;2023-12-29T03:51:35;6.72;;;2.65;;
80136;SDS011;69466;55.948;37.484;2023-12-29T03:54:01;7.85;;;2.28;;
80136;SDS011;69466;55.948;37.484;2023-12-29T03:56:27;6.03;;;2.67;;
80136;SDS011;69466;55.948;37.484;2023-12-29T03:58:53;6.63;;;2.50;;
80136;SDS011;69466;55.948;37.484;2023-12-29T04:01:19;6.20;;;2.55;;
80136;SDS011;69466;55.948;37.484;2023-12-29T04:03:45;7.70;;;2.90;;
80136;SDS011;69466;55.948;37.484;2023-12-29T04:06:12;6.38;;;3.30;;
80136;SDS011;69466;55.948;37.484;2023-12-29T04:08:38;6.13;;;2.72;;
80136;SDS011;69466;55.948;37.484;2023-12-29T04:11:04;6.13;;;2.80;;
80136;SDS011;69466;55.948;37.484;2023-12-29T04:13:31;5.80;;;3.10;;
80136;SDS011;69466;55.948;37.484;2023-12-29T04:15:57;9.05;;;3.40;;
80136;SDS011;69466;55.948;37.484;2023-12-29T04:18:23;5.88;;;2.67;;
80136;SDS011;69466;55.948;37.484;2023-12-29T04:20:50;6.72;;;2.63;;
80136;SDS011;69466;55.948;37.484;2023-12-29T04:23:16;6.25;;;2.60;;
80136;SDS011;69466;55.948;37.484;2023-12-29T04:25:43;6.20;;;2.67;;
80136;SDS011;69466;55.948;37.484;2023-12-29T04:28:08;7.15;;;3.72;;
80136;SDS011;69466;55.948;37.484;2023-12-29T04:30:35;6.40;;;2.83;;
80136;SDS011;69466;55.948;37.484;2023-12-29T04:33:01;10.18;;;3.10;;
80136;SDS011;69466;55.948;37.484;2023-12-29T04:35:27;9.00;;;3.20;;
80136;SDS011;69466;55.948;37.484;2023-12-29T04:37:53;7.10;;;3.42;;
80136;SDS011;69466;55.948;37.484;2023-12-29T04:40:19;9.98;;;3.60;;
80136;SDS011;69466;55.948;37.484;2023-12-29T04:42:45;7.47;;;3.35;;
80136;SDS011;69466;55.948;37.484;2023-12-29T04:45:11;6.70;;;3.10;;
80136;SDS011;69466;55.948;37.484;2023-12-29T04:47:37;11.35;;;3.22;;
80136;SDS011;69466;55.948;37.484;2023-12-29T04:50:04;7.53;;;3.03;;
80136;SDS011;69466;55.948;37.484;2023-12-29T04:52:31;7.97;;;3.35;;
80136;SDS011;69466;55.948;37.484;2023-12-29T04:54:57;12.10;;;4.03;;
80136;SDS011;69466;55.948;37.484;2023-12-29T04:57:33;8.60;;;3.03;;
80136;SDS011;69466;55.948;37.484;2023-12-29T04:59:59;8.40;;;3.20;;
80136;SDS011;69466;55.948;37.484;2023-12-29T05:02:26;10.57;;;4.47;;
80136;SDS011;69466;55.948;37.484;2023-12-29T05:04:52;10.23;;;4.13;;
80136;SDS011;69466;55.948;37.484;2023-12-29T05:07:19;6.60;;;3.17;;
80136;SDS011;69466;55.948;37.484;2023-12-29T05:09:45;9.27;;;3.95;;
80136;SDS011;69466;55.948;37.484;2023-12-29T05:12:11;7.47;;;3.67;;
80136;SDS011;69466;55.948;37.484;2023-12-29T05:14:37;7.82;;;3.67;;
80136;SDS011;69466;55.948;37.484;2023-12-29T05:17:03;9.65;;;3.33;;
80136;SDS011;69466;55.948;37.484;2023-12-29T05:19:29;9.00;;;3.63;;
80136;SDS011;69466;55.948;37.484;2023-12-29T05:21:55;9.40;;;3.78;;
80136;SDS011;69466;55.948;37.484;2023-12-29T05:24:21;8.98;;;3.50;;
80136;SDS011;69466;55.948;37.484;2023-12-29T05:26:47;7.40;;;3.35;;
80136;SDS011;69466;55.948;37.484;2023-12-29T05:29:13;8.35;;;4.15;;
80136;SDS011;69466;55.948;37.484;2023-12-29T05:31:39;10.63;;;3.70;;
80136;SDS011;69466;55.948;37.484;2023-12-29T05:34:05;8.07;;;3.90;;
80136;SDS011;69466;55.948;37.484;2023-12-29T05:36:34;11.57;;;3.95;;
80136;SDS011;69466;55.948;37.484;2023-12-29T05:39:01;9.80;;;3.95;;
80136;SDS011;69466;55.948;37.484;2023-12-29T05:41:27;10.25;;;6.60;;
80136;SDS011;69466;55.948;37.484;2023-12-29T05:43:53;10.52;;;3.85;;
80136;SDS011;69466;55.948;37.484;2023-12-29T05:46:20;10.80;;;3.70;;
80136;SDS011;69466;55.948;37.484;2023-12-29T05:48:46;9.52;;;3.92;;
80136;SDS011;69466;55.948;37.484;2023-12-29T05:51:12;9.32;;;4.43;;
80136;SDS011;69466;55.948;37.484;2023-12-29T05:53:39;10.75;;;4.40;;
80136;SDS011;69466;55.948;37.484;2023-12-29T05:56:05;9.57;;;3.83;;
80136;SDS011;69466;55.948;37.484;2023-12-29T05:58:32;9.52;;;3.80;;
80136;SDS011;69466;55.948;37.484;2023-12-29T06:00:58;8.73;;;4.43;;
80136;SDS011;69466;55.948;37.484;2023-12-29T06:03:26;12.50;;;4.60;;
80136;SDS011;69466;55.948;37.484;2023-12-29T06:05:52;10.10;;;3.70;;
80136;SDS011;69466;55.948;37.484;2023-12-29T06:08:18;9.35;;;4.65;;
80136;SDS011;69466;55.948;37.484;2023-12-29T06:10:44;11.45;;;4.45;;
80136;SDS011;69466;55.948;37.484;2023-12-29T06:13:10;10.90;;;4.30;;
80136;SDS011;69466;55.948;37.484;2023-12-29T06:15:36;11.27;;;4.13;;
80136;SDS011;69466;55.948;37.484;2023-12-29T06:18:02;9.90;;;4.38;;
80136;SDS011;69466;55.948;37.484;2023-12-29T06:20:28;13.25;;;4.90;;
80136;SDS011;69466;55.948;37.484;2023-12-29T06:22:55;10.18;;;4.60;;
80136;SDS011;69466;55.948;37.484;2023-12-29T06:25:21;8.02;;;4.60;;
80136;SDS011;69466;55.948;37.484;2023-12-29T06:27:48;10.13;;;4.50;;
80136;SDS011;69466;55.948;37.484;2023-12-29T06:30:14;13.00;;;4.25;;
80136;SDS011;69466;55.948;37.484;2023-12-29T06:32:58;10.73;;;5.20;;
80136;SDS011;69466;55.948;37.484;2023-12-29T06:35:24;9.70;;;4.53;;
80136;SDS011;69466;55.948;37.484;2023-12-29T06:37:50;13.20;;;4.43;;
80136;SDS011;69466;55.948;37.484;2023-12-29T06:40:16;9.02;;;4.22;;
80136;SDS011;69466;55.948;37.484;2023-12-29T06:42:44;10.75;;;4.43;;
80136;SDS011;69466;55.948;37.484;2023-12-29T06:45:10;13.30;;;5.10;;
80136;SDS011;69466;55.948;37.484;2023-12-29T06:47:37;9.60;;;4.30;;
80136;SDS011;69466;55.948;37.484;2023-12-29T06:50:03;11.45;;;5.10;;
80136;SDS011;69466;55.948;37.484;2023-12-29T06:52:31;11.75;;;5.15;;
80136;SDS011;69466;55.948;37.484;2023-12-29T06:55:00;9.48;;;4.53;;
80136;SDS011;69466;55.948;37.484;2023-12-29T06:57:31;8.80;;;4.43;;
80136;SDS011;69466;55.948;37.484;2023-12-29T06:59:57;10.02;;;4.18;;
80136;SDS011;69466;55.948;37.484;2023-12-29T07:02:23;10.15;;;5.00;;
80136;SDS011;69466;55.948;37.484;2023-12-29T07:04:49;12.00;;;4.82;;
80136;SDS011;69466;55.948;37.484;2023-12-29T07:07:15;12.02;;;4.60;;
80136;SDS011;69466;55.948;37.484;2023-12-29T07:09:41;9.05;;;5.57;;
80136;SDS011;69466;55.948;37.484;2023-12-29T07:12:07;9.85;;;4.47;;
80136;SDS011;69466;55.948;37.484;2023-12-29T07:14:36;10.00;;;4.72;;
80136;SDS011;69466;55.948;37.484;2023-12-29T07:17:11;10.15;;;5.40;;
80136;SDS011;69466;55.948;37.484;2023-12-29T07:19:37;11.20;;;4.47;;
80136;SDS011;69466;55.948;37.484;2023-12-29T07:22:04;10.57;;;4.80;;
80136;SDS011;69466;55.948;37.484;2023-12-29T07:24:34;10.25;;;4.63;;
80136;SDS011;69466;55.948;37.484;2023-12-29T07:27:01;12.77;;;4.60;;
80136;SDS011;69466;55.948;37.484;2023-12-29T07:29:28;9.98;;;4.88;;
80136;SDS011;69466;55.948;37.484;2023-12-29T07:31:54;11.82;;;5.13;;
80136;SDS011;69466;55.948;37.484;2023-12-29T07:34:20;14.55;;;5.15;;
80136;SDS011;69466;55.948;37.484;2023-12-29T07:36:47;9.90;;;4.72;;
80136;SDS011;69466;55.948;37.484;2023-12-29T07:39:13;11.52;;;5.50;;
80136;SDS011;69466;55.948;37.484;2023-12-29T07:41:40;12.98;;;5.68;;
80136;SDS011;69466;55.948;37.484;2023-12-29T07:44:07;9.30;;;4.78;;
80136;SDS011;69466;55.948;37.484;2023-12-29T07:46:35;9.65;;;4.60;;
80136;SDS011;69466;55.948;37.484;2023-12-29T07:49:02;10.23;;;5.10;;
80136;SDS011;69466;55.948;37.484;2023-12-29T07:51:29;10.35;;;4.90;;
80136;SDS011;69466;55.948;37.484;2023-12-29T07:53:56;10.98;;;5.88;;
80136;SDS011;69466;55.948;37.484;2023-12-29T07:56:22;15.18;;;6.68;;
80136;SDS011;69466;55.948;37.484;2023-12-29T07:58:47;13.00;;;5.80;;
80136;SDS011;69466;55.948;37.484;2023-12-29T08:01:13;8.23;;;4.15;;
80136;SDS011;69466;55.948;37.484;2023-12-29T08:03:39;12.35;;;4.95;;
80136;SDS011;69466;55.948;37.484;2023-12-29T08:06:05;10.05;;;6.18;;
80136;SDS011;69466;55.948;37.484;2023-12-29T08:08:31;10.75;;;5.18;;
80136;SDS011;69466;55.948;37.484;2023-12-29T08:10:57;12.35;;;5.05;;
80136;SDS011;69466;55.948;37.484;2023-12-29T08:13:24;12.85;;;5.68;;
80136;SDS011;69466;55.948;37.484;2023-12-29T08:15:51;11.25;;;5.65;;
80136;SDS011;69466;55.948;37.484;2023-12-29T08:18:17;11.35;;;6.03;;
80136;SDS011;69466;55.948;37.484;2023-12-29T08:20:43;13.30;;;5.97;;
80136;SDS011;69466;55.948;37.484;2023-12-29T08:23:09;11.15;;;4.60;;
80136;SDS011;69466;55.948;37.484;2023-12-29T08:25:38;8.45;;;5.00;;
80136;SDS011;69466;55.948;37.484;2023-12-29T08:28:04;13.13;;;5.25;;
80136;SDS011;69466;55.948;37.484;2023-12-29T08:30:30;12.95;;;5.35;;
80136;SDS011;69466;55.948;37.484;2023-12-29T08:33:00;16.63;;;7.05;;
80136;SDS011;69466;55.948;37.484;2023-12-29T08:35:26;13.48;;;5.43;;
80136;SDS011;69466;55.948;37.484;2023-12-29T08:37:52;17.38;;;5.30;;
80136;SDS011;69466;55.948;37.484;2023-12-29T08:40:18;12.10;;;6.28;;
80136;SDS011;69466;55.948;37.484;2023-12-29T08:42:44;14.65;;;5.63;;
80136;SDS011;69466;55.948;37.484;2023-12-29T08:45:10;14.45;;;5.30;;
80136;SDS011;69466;55.948;37.484;2023-12-29T08:47:36;13.52;;;6.25;;
80136;SDS011;69466;55.948;37.484;2023-12-29T08:50:02;12.55;;;5.18;;
80136;SDS011;69466;55.948;37.484;2023-12-29T08:52:29;13.20;;;5.47;;
80136;SDS011;69466;55.948;37.484;2023-12-29T08:54:58;13.15;;;5.65;;
80136;SDS011;69466;55.948;37.484;2023-12-29T08:57:24;14.48;;;5.45;;
80136;SDS011;69466;55.948;37.484;2023-12-29T08:59:50;13.05;;;5.90;;
80136;SDS011;69466;55.948;37.484;2023-12-29T09:02:16;13.98;;;7.65;;
80136;SDS011;69466;55.948;37.484;2023-12-29T09:04:44;12.65;;;5.88;;
80136;SDS011;69466;55.948;37.484;2023-12-29T09:07:10;13.18;;;6.03;;
80136;SDS011;69466;55.948;37.484;2023-12-29T09:09:36;10.63;;;5.40;;
80136;SDS011;69466;55.948;37.484;2023-12-29T09:12:02;11.38;;;5.45;;
80136;SDS011;69466;55.948;37.484;2023-12-29T09:14:28;11.52;;;6.22;;
80136;SDS011;69466;55.948;37.484;2023-12-29T09:16:56;11.77;;;5.57;;
80136;SDS011;69466;55.948;37.484;2023-12-29T09:19:22;11.80;;;5.90;;
80136;SDS011;69466;55.948;37.484;2023-12-29T09:21:48;11.48;;;5.55;;
80136;SDS011;69466;55.948;37.484;2023-12-29T09:24:14;11.10;;;4.82;;
80136;SDS011;69466;55.948;37.484;2023-12-29T09:26:43;14.57;;;6.35;;
80136;SDS011;69466;55.948;37.484;2023-12-29T09:29:08;15.60;;;6.90;;
80136;SDS011;69466;55.948;37.484;2023-12-29T09:31:35;13.95;;;6.93;;
80136;SDS011;69466;55.948;37.484;2023-12-29T09:34:02;12.43;;;5.80;;
80136;SDS011;69466;55.948;37.484;2023-12-29T09:36:28;13.27;;;5.95;;
80136;SDS011;69466;55.948;37.484;2023-12-29T09:38:54;13.15;;;6.65;;
80136;SDS011;69466;55.948;37.484;2023-12-29T09:41:20;12.68;;;6.55;;
80136;SDS011;69466;55.948;37.484;2023-12-29T09:43:49;16.27;;;6.00;;
80136;SDS011;69466;55.948;37.484;2023-12-29T09:46:16;12.30;;;4.97;;
80136;SDS011;69466;55.948;37.484;2023-12-29T09:48:47;13.60;;;5.78;;
80136;SDS011;69466;55.948;37.484;2023-12-29T09:51:13;10.68;;;5.25;;
80136;SDS011;69466;55.948;37.484;2023-12-29T09:53:41;13.50;;;5.40;;
80136;SDS011;69466;55.948;37.484;2023-12-29T09:56:08;11.48;;;5.57;;
80136;SDS011;69466;55.948;37.484;2023-12-29T09:58:35;12.35;;;5.50;;
80136;SDS011;69466;55.948;37.484;2023-12-29T10:01:06;11.52;;;6.00;;
80136;SDS011;69466;55.948;37.484;2023-12-29T10:03:32;10.50;;;5.18;;
80136;SDS011;69466;55.948;37.484;2023-12-29T10:06:03;12.05;;;4.95;;
80136;SDS011;69466;55.948;37.484;2023-12-29T10:08:34;8.93;;;4.60;;
80136;SDS011;69466;55.948;37.484;2023-12-29T10:11:03;12.43;;;5.47;;
80136;SDS011;69466;55.948;37.484;2023-12-29T10:13:35;12.75;;;5.82;;
80136;SDS011;69466;55.948;37.484;2023-12-29T10:19:20;13.27;;;6.60;;
80136;SDS011;69466;55.948;37.484;2023-12-29T10:24:41;14.27;;;7.28;;
80136;SDS011;69466;55.948;37.484;2023-12-29T10:27:12;15.30;;;7.30;;
80136;SDS011;69466;55.948;37.484;2023-12-29T10:29:38;11.80;;;6.35;;
80136;SDS011;69466;55.948;37.484;2023-12-29T10:32:04;10.07;;;5.47;;
80136;SDS011;69466;55.948;37.484;2023-12-29T10:34:31;11.85;;;5.88;;
80136;SDS011;69466;55.948;37.484;2023-12-29T10:36:58;15.52;;;6.30;;
80136;SDS011;69466;55.948;37.484;2023-12-29T10:39:25;11.75;;;6.32;;
80136;SDS011;69466;55.948;37.484;2023-12-29T10:42:04;11.43;;;5.65;;
80136;SDS011;69466;55.948;37.484;2023-12-29T10:44:33;12.77;;;6.35;;
80136;SDS011;69466;55.948;37.484;2023-12-29T10:47:12;11.48;;;6.00;;
80136;SDS011;69466;55.948;37.484;2023-12-29T10:49:39;10.88;;;6.10;;
80136;SDS011;69466;55.948;37.484;2023-12-29T10:52:15;15.45;;;6.13;;
80136;SDS011;69466;55.948;37.484;2023-12-29T10:54:42;13.30;;;5.88;;
80136;SDS011;69466;55.948;37.484;2023-12-29T10:57:10;11.60;;;6.07;;
80136;SDS011;69466;55.948;37.484;2023-12-29T10:59:38;12.50;;;6.07;;
80136;SDS011;69466;55.948;37.484;2023-12-29T11:02:05;13.32;;;6.72;;
80136;SDS011;69466;55.948;37.484;2023-12-29T11:04:34;11.85;;;6.07;;
80136;SDS011;69466;55.948;37.484;2023-12-29T11:07:00;14.45;;;6.53;;
80136;SDS011;69466;55.948;37.484;2023-12-29T11:09:29;11.65;;;6.13;;
80136;SDS011;69466;55.948;37.484;2023-12-29T11:11:57;12.10;;;6.95;;
80136;SDS011;69466;55.948;37.484;2023-12-29T11:14:29;11.25;;;6.00;;
80136;SDS011;69466;55.948;37.484;2023-12-29T11:16:57;13.60;;;6.72;;
80136;SDS011;69466;55.948;37.484;2023-12-29T11:19:27;10.50;;;5.85;;
80136;SDS011;69466;55.948;37.484;2023-12-29T11:21:57;11.93;;;6.47;;
80136;SDS011;69466;55.948;37.484;2023-12-29T11:24:23;13.02;;;6.93;;
80136;SDS011;69466;55.948;37.484;2023-12-29T11:26:50;13.82;;;6.68;;
80136;SDS011;69466;55.948;37.484;2023-12-29T11:29:18;12.70;;;6.70;;
80136;SDS011;69466;55.948;37.484;2023-12-29T11:31:45;11.30;;;5.85;;
80136;SDS011;69466;55.948;37.484;2023-12-29T11:34:34;11.50;;;6.28;;
80136;SDS011;69466;55.948;37.484;2023-12-29T11:40:12;14.02;;;6.70;;
80136;SDS011;69466;55.948;37.484;2023-12-29T11:42:44;12.27;;;6.38;;
80136;SDS011;69466;55.948;37.484;2023-12-29T11:45:25;14.20;;;6.57;;
80136;SDS011;69466;55.948;37.484;2023-12-29T11:47:55;12.38;;;6.10;;
80136;SDS011;69466;55.948;37.484;2023-12-29T11:50:28;11.38;;;6.60;;
80136;SDS011;69466;55.948;37.484;2023-12-29T11:52:56;11.27;;;5.70;;
80136;SDS011;69466;55.948;37.484;2023-12-29T11:55:27;13.70;;;6.07;;
80136;SDS011;69466;55.948;37.484;2023-12-29T11:57:55;11.75;;;6.45;;
80136;SDS011;69466;55.948;37.484;2023-12-29T12:00:39;13.60;;;7.13;;
80136;SDS011;69466;55.948;37.484;2023-12-29T12:03:14;12.10;;;6.22;;
80136;SDS011;69466;55.948;37.484;2023-12-29T12:05:49;10.95;;;6.07;;
80136;SDS011;69466;55.948;37.484;2023-12-29T12:08:37;12.93;;;5.78;;
80136;SDS011;69466;55.948;37.484;2023-12-29T12:14:02;11.98;;;5.93;;
80136;SDS011;69466;55.948;37.484;2023-12-29T12:16:48;11.32;;;5.90;;
80136;SDS011;69466;55.948;37.484;2023-12-29T12:19:16;12.75;;;5.60;;
80136;SDS011;69466;55.948;37.484;2023-12-29T12:21:42;10.55;;;5.60;;
80136;SDS011;69466;55.948;37.484;2023-12-29T12:24:13;14.85;;;6.82;;
80136;SDS011;69466;55.948;37.484;2023-12-29T12:26:40;13.60;;;5.88;;
80136;SDS011;69466;55.948;37.484;2023-12-29T12:29:07;10.98;;;5.72;;
80136;SDS011;69466;55.948;37.484;2023-12-29T12:31:34;12.00;;;6.53;;
80136;SDS011;69466;55.948;37.484;2023-12-29T12:34:00;12.48;;;5.72;;
80136;SDS011;69466;55.948;37.484;2023-12-29T12:36:27;10.82;;;5.80;;
80136;SDS011;69466;55.948;37.484;2023-12-29T12:38:53;13.05;;;6.53;;
80136;SDS011;69466;55.948;37.484;2023-12-29T12:41:21;13.52;;;5.78;;
80136;SDS011;69466;55.948;37.484;2023-12-29T12:46:34;10.07;;;5.72;;
80136;SDS011;69466;55.948;37.484;2023-12-29T12:49:03;11.48;;;6.13;;
80136;SDS011;69466;55.948;37.484;2023-12-29T12:51:31;13.38;;;6.65;;
80136;SDS011;69466;55.948;37.484;2023-12-29T12:53:58;12.30;;;6.07;;
80136;SDS011;69466;55.948;37.484;2023-12-29T12:56:25;14.25;;;7.03;;
80136;SDS011;69466;55.948;37.484;2023-12-29T12:58:55;14.43;;;6.22;;
80136;SDS011;69466;55.948;37.484;2023-12-29T13:01:23;12.15;;;6.18;;
80136;SDS011;69466;55.948;37.484;2023-12-29T13:03:50;15.18;;;5.93;;
80136;SDS011;69466;55.948;37.484;2023-12-29T13:06:16;12.50;;;6.60;;
80136;SDS011;69466;55.948;37.484;2023-12-29T13:08:43;14.05;;;6.70;;
80136;SDS011;69466;55.948;37.484;2023-12-29T13:11:10;14.38;;;6.70;;
80136;SDS011;69466;55.948;37.484;2023-12-29T13:13:42;12.75;;;6.05;;
80136;SDS011;69466;55.948;37.484;2023-12-29T13:16:08;11.02;;;6.75;;
80136;SDS011;69466;55.948;37.484;2023-12-29T13:18:35;11.38;;;6.53;;
80136;SDS011;69466;55.948;37.484;2023-12-29T13:21:03;14.98;;;6.05;;
80136;SDS011;69466;55.948;37.484;2023-12-29T13:23:29;14.65;;;6.38;;
80136;SDS011;69466;55.948;37.484;2023-12-29T13:25:57;14.43;;;6.65;;
80136;SDS011;69466;55.948;37.484;2023-12-29T13:28:27;13.70;;;7.40;;
80136;SDS011;69466;55.948;37.484;2023-12-29T13:30:53;11.95;;;6.57;;
80136;SDS011;69466;55.948;37.484;2023-12-29T13:36:21;13.68;;;6.13;;
80136;SDS011;69466;55.948;37.484;2023-12-29T13:39:06;13.25;;;6.28;;
80136;SDS011;69466;55.948;37.484;2023-12-29T13:41:47;13.02;;;6.03;;
80136;SDS011;69466;55.948;37.484;2023-12-29T13:44:15;14.90;;;7.07;;
80136;SDS011;69466;55.948;37.484;2023-12-29T13:46:43;11.40;;;6.20;;
80136;SDS011;69466;55.948;37.484;2023-12-29T13:49:09;11.25;;;6.60;;
80136;SDS011;69466;55.948;37.484;2023-12-29T13:51:35;17.27;;;7.22;;
80136;SDS011;69466;55.948;37.484;2023-12-29T13:54:01;13.93;;;6.90;;
80136;SDS011;69466;55.948;37.484;2023-12-29T13:56:29;14.20;;;6.65;;
80136;SDS011;69466;55.948;37.484;2023-12-29T13:58:55;14.95;;;7.57;;
80136;SDS011;69466;55.948;37.484;2023-12-29T14:01:21;14.18;;;7.32;;
80136;SDS011;69466;55.948;37.484;2023-12-29T14:03:55;15.93;;;7.20;;
80136;SDS011;69466;55.948;37.484;2023-12-29T14:06:43;13.45;;;7.65;;
80136;SDS011;69466;55.948;37.484;2023-12-29T14:09:20;13.73;;;7.35;;
80136;SDS011;69466;55.948;37.484;2023-12-29T14:11:46;15.57;;;8.05;;
80136;SDS011;69466;55.948;37.484;2023-12-29T14:14:14;15.15;;;8.35;;
80136;SDS011;69466;55.948;37.484;2023-12-29T14:16:46;14.00;;;7.40;;
80136;SDS011;69466;55.948;37.484;2023-12-29T14:19:13;17.63;;;8.13;;
80136;SDS011;69466;55.948;37.484;2023-12-29T14:21:39;18.30;;;8.13;;
80136;SDS011;69466;55.948;37.484;2023-12-29T14:24:13;20.25;;;8.13;;
80136;SDS011;69466;55.948;37.484;2023-12-29T14:29:13;16.00;;;8.13;;
80136;SDS011;69466;55.948;37.484;2023-12-29T14:31:43;16.85;;;8.80;;
80136;SDS011;69466;55.948;37.484;2023-12-29T14:34:11;19.48;;;8.52;;
80136;SDS011;69466;55.948;37.484;2023-12-29T14:36:42;19.15;;;8.65;;
80136;SDS011;69466;55.948;37.484;2023-12-29T14:39:09;19.17;;;8.50;;
80136;SDS011;69466;55.948;37.484;2023-12-29T14:41:36;20.83;;;9.93;;
80136;SDS011;69466;55.948;37.484;2023-12-29T14:44:02;18.13;;;8.18;;
80136;SDS011;69466;55.948;37.484;2023-12-29T14:46:29;18.13;;;9.23;;
80136;SDS011;69466;55.948;37.484;2023-12-29T14:48:56;15.02;;;8.30;;